Domov               UVHVVR             MKGP            O straneh              
ZDRAVSTVENO VARSTVO RASTLIN
  MREŽA AGROMET. POSTAJ
 ► PROGNOSTIČNA OBVESTILA
AGROMETEOROLOŠKI PODATKI -
ARSO
OBVLADOVANJE TVEGANJ ZARADI
NEUGODNIH VREMENSKIH RAZMER
  ► NARAVNE NESREČE
  ► SUŠA/MOČA
  ► NAMAKANJE
  ► ŽLED (gozdarstvo)
KARTOGRAFSKI PRIKAZI
SPLETNE POVEZAVE
PROJEKTI IN PUBLIKACIJE

AGROMETEOROLOŠKA MREŽA: VREMENSKE POSTAJE IN FENOLOŠKA OPAZOVANJA

Pregled podatkov za lokacijo Maribor - BTŠ, meteorološka postaja 35810

Pregled senzorjev na lokaciji

ID Ime Zadnja
vrednost
Datum in čas
zadnje
spremembe
(Lokalni čas)
Tip
senzorja
4297 Omočenost lista (U) 0 U 10.4.2020 02:30 A730WET
1723 Padavine (mm) 0 mm 10.4.2020 02:30 Generic 0.2 mm
1722 Relativna vlaga 2 m (% RH) 53.87 % RH 10.4.2020 02:30 Generic 0 - 100 %
1721 Temperatura 2 m (°C) 8.3 °C 10.4.2020 02:30 Generic -40 - +60 °C
4296 Smer vetra (°) 271.82 ° 10.4.2020 02:30 Generic 0 - 360
4295 Hitrost vetra (km/h) 2.17 km/h 10.4.2020 02:30 Generic 100 km/h

Pregled podatkov zadnjih 24 ur

Zap.
št.
Datum in čas
(Centralno
evropski čas)
Maribor - BTŠ
Omočenost
lista
Padavine Relativna
vlaga
2
m
Temperatura
2
m
Smer
vetra
Hitrost
vetra
1 10.4.2020 02:30
2 10.4.2020 02:00
3 10.4.2020 01:30 0 0 53.9 8.3 271.8 2.2
4 10.4.2020 01:00 0 0 42.6 11.5 245.6 3.3
5 10.4.2020 00:30 0 0 43.4 11.4 288.1 4
6 10.4.2020 00:00 0 0 43.3 11.6 239.7 3.6
7 9.4.2020 23:30 0 0 42.3 11.9 312.5 3.8
8 9.4.2020 23:00 0 0 43.2 11.7 273 3.8
9 9.4.2020 22:30 0 0 43.9 11.6 291.3 3.3
10 9.4.2020 22:00 0 0 45.5 11.3 268.6 2.7
11 9.4.2020 21:30 0 0 50.7 9.9 260.8 1.6
12 9.4.2020 21:00 0 0 56.7 9 214.1 0.7
13 9.4.2020 20:30 0 0 53.8 9.8 289.2 1
14 9.4.2020 20:00 0 0 47.7 11.3 301.7 0.5
15 9.4.2020 19:30 0 0 39 13.9 316.9 0.8
16 9.4.2020 19:00 0 0 31.1 16.3 77.6 1.1
17 9.4.2020 18:30 0 0 24.7 19.1 58 1.1
18 9.4.2020 18:00 0 0 23.4 20.8 47.8 1.3
19 9.4.2020 17:30 0 0 21.2 21.9 81.8 1.5
20 9.4.2020 17:00 0 0 21.6 22.7 99.9 2
21 9.4.2020 16:30 0 0 22.2 23.2 76.4 1.9
22 9.4.2020 16:00 0 0 21.4 24 106.5 2.2
23 9.4.2020 15:30 0 0 20.6 24.4 84.1 2.3
24 9.4.2020 15:00 0 0 21.4 24.1 58 1.6
25 9.4.2020 14:30 0 0 22 23.7 91.5 2.1
26 9.4.2020 14:00 0 0 22.4 22.8 72.7 2.5
27 9.4.2020 13:30 0 0 22.8 22.5 130.8 2.1
28 9.4.2020 13:00 0 0 25.6 22.6 0.1 2
29 9.4.2020 12:30 0 0 25.1 22.1 5.4 2.2
30 9.4.2020 12:00 0 0 27.4 21.2 129.4 2.3
31 9.4.2020 11:30 0 0 27.2 20.7 342.9 2.2
32 9.4.2020 11:00 0 0 28.7 20 107.3 2.1
33 9.4.2020 10:30 0 0 29.9 18.7 189.7 2
34 9.4.2020 10:00 0 0 32 17.1 277.5 3.2
35 9.4.2020 09:30 0 0 34 15.9 243.7 4.4
36 9.4.2020 09:00 0 0 37.5 14.3 284.1 4.2
37 9.4.2020 08:30 0 0 41.9 12.5 264 3.8
38 9.4.2020 08:00 0 0 46.3 10.5 264.6 3.8
39 9.4.2020 07:30 0 0 49.4 8.8 277.8 4
40 9.4.2020 07:00 0 0 52 7.3 261.6 4.2
41 9.4.2020 06:30 0 0 53.7 6.4 322.1 4.1
42 9.4.2020 06:00 0 0 54.6 6 285.3 3.7
43 9.4.2020 05:30 0 0 55.1 5.9 282.5 4.1
44 9.4.2020 05:00 0 0 53.6 6.1 302 5.3
45 9.4.2020 04:30 0 0 54.5 5.9 275.5 3.9
46 9.4.2020 04:00 0 0 54.5 5.8 272.6 3.1
47 9.4.2020 03:30 0 0 52.3 6.1 251.5 3.3
48 9.4.2020 03:00 0 0 51 6.6 290.5 4.1
© 2011 Ministrstvo za kmetijstvo, gozdarstvo in prehrano. Vse pravice pridržane.